Terminal Aerodrome Forecast
Issued by NWS Bismarck, ND

Home | Current Version | Previous Version | Graphics & Text | Print | Product List | Glossary On
Versions: 1 2 3 4 5 6 7 8 9 10 11
009
FTUS43 KBIS 231726
TAFISN
TAF
KISN 231726Z 2318/2418 11016G24KT P6SM OVC010
     FM240600 10009KT P6SM -RASN OVC008
     FM241100 06005KT P6SM VCSH OVC003
     FM241200 06007KT P6SM OVC003
     FM241400 05008KT P6SM OVC008=

USA.gov is the U.S. government's official web portal to all federal, state and local government web resources and services.